Time;durP1;ratioP1;P1;durP2;ratioP2;P2;SDS_P1;SDS_P2;PMS_P1;PMS_P2;Temp;Humidity;BMP_temperature;BMP_pressure;BME280_temperature;BME280_humidity;BME280_pressure;Samples;Min_cycle;Max_cycle;Signal;HPM_P1;HPM_P2
2022/06/04 00:00:19;;;;;;;4.47;3.00;;;;;;;-148.88;72.82;75724.41;5055528;28;20021;-76
2022/06/04 00:02:46;;;;;;;5.50;3.10;;;;;;;-148.88;73.09;75726.44;5054117;28;20047;-76
2022/06/04 00:05:14;;;;;;;4.80;3.05;;;;;;;-148.88;73.29;75732.53;5055392;28;20056;-76
2022/06/04 00:07:41;;;;;;;4.35;3.00;;;;;;;-148.88;73.05;75728.47;5055306;28;20100;-76
2022/06/04 00:15:43;;;;;;;6.45;3.60;;;;;;;-148.88;72.72;75728.47;5055345;28;20032;-76
2022/06/04 00:18:08;;;;;;;5.00;3.15;;;;;;;-148.88;73.02;75728.47;5055433;28;20029;-75
2022/06/04 00:20:33;;;;;;;4.40;3.40;;;;;;;-148.88;73.71;75734.56;5055015;28;20031;-76
2022/06/04 00:23:01;;;;;;;4.93;3.40;;;;;;;-148.88;74.09;75744.72;5055013;28;20021;-76
2022/06/04 00:25:27;;;;;;;4.88;3.38;;;;;;;-148.88;74.82;75767.06;5053684;28;20032;-76
2022/06/04 00:27:56;;;;;;;4.95;3.25;;;;;;;-148.88;74.29;75760.97;5054867;28;20032;-76
2022/06/04 00:30:21;;;;;;;4.88;3.40;;;;;;;-148.88;74.49;75760.97;5054895;28;20025;-76
2022/06/04 00:32:47;;;;;;;5.95;3.17;;;;;;;-148.88;75.39;75765.03;5053652;28;20024;-76
2022/06/04 00:35:13;;;;;;;6.10;3.47;;;;;;;-148.88;75.18;75769.09;5054826;28;20094;-76
2022/06/04 00:37:39;;;;;;;5.07;3.45;;;;;;;-148.88;76.27;75787.38;5054725;28;20025;-76
2022/06/04 00:40:06;;;;;;;6.47;3.42;;;;;;;-148.88;76.08;75793.47;5054994;28;20124;-76
2022/06/04 00:42:31;;;;;;;5.93;3.35;;;;;;;-148.88;76.23;75793.47;5053315;28;20028;-76
2022/06/04 00:45:21;;;;;;;5.80;3.83;;;;;;;-148.88;76.23;75797.53;5055456;28;20033;-76
2022/06/04 00:47:48;;;;;;;5.88;3.20;;;;;;;-148.88;76.49;75809.72;5054638;28;20139;-76
2022/06/04 00:50:15;;;;;;;4.80;3.33;;;;;;;-148.88;76.74;75813.78;5055133;28;20115;-75
2022/06/04 00:52:43;;;;;;;4.68;3.40;;;;;;;-148.88;77.33;75817.84;5054832;28;20021;-75
2022/06/04 00:55:09;;;;;;;6.50;3.67;;;;;;;-148.88;77.17;75825.97;5053266;28;20025;-75
2022/06/04 00:58:13;;;;;;;6.13;3.40;;;;;;;-148.88;77.75;75832.06;5054595;28;20040;-76
2022/06/04 01:00:49;;;;;;;5.10;3.38;;;;;;;-148.88;77.75;75840.19;5054655;28;20158;-76
2022/06/04 01:03:26;;;;;;;6.03;3.28;;;;;;;-148.88;78.05;75846.28;5054207;28;20537;-76
2022/06/04 01:06:22;;;;;;;6.68;3.60;;;;;;;-148.88;78.50;75840.19;5054446;28;20079;-76
2022/06/04 01:09:15;;;;;;;5.70;3.55;;;;;;;-148.88;78.30;75842.22;5054147;28;20485;-76
2022/06/04 01:12:10;;;;;;;8.07;3.63;;;;;;;-148.88;78.14;75842.22;5053174;28;20367;-76
2022/06/04 01:14:43;;;;;;;;;;;;;;;-148.88;78.81;75844.25;5054745;28;20029;-75
2022/06/04 01:17:19;;;;;;;7.38;3.75;;;;;;;-148.88;78.20;75858.47;5076154;22;19922;-82
2022/06/04 01:19:58;;;;;;;4.55;3.33;;;;;;;-148.88;78.89;75862.53;5017426;28;20037;-84
2022/06/04 01:23:12;;;;;;;7.35;3.78;;;;;;;-148.88;78.99;75860.50;5018953;28;20029;-83
2022/06/04 01:25:47;;;;;;;5.93;3.80;;;;;;;-148.88;79.23;75872.69;5019525;28;20029;-84
2022/06/04 01:28:16;;;;;;;5.97;3.85;;;;;;;-148.88;79.39;75880.81;5038546;28;20104;-84
2022/06/04 01:30:50;;;;;;;6.90;4.00;;;;;;;-148.88;79.70;75886.91;5038708;28;20025;-83
2022/06/04 01:33:36;;;;;;;6.20;4.03;;;;;;;-148.88;79.68;75878.78;5038624;28;20018;-83
2022/06/04 01:36:08;;;;;;;6.05;4.22;;;;;;;-148.88;79.83;75884.88;5037295;28;20446;-83
2022/06/04 01:38:40;;;;;;;5.38;4.05;;;;;;;-148.88;80.35;75897.06;5038838;28;20025;-83
2022/06/04 01:41:11;;;;;;;7.10;4.40;;;;;;;-148.88;80.42;75899.09;5037187;28;20457;-83
2022/06/04 01:43:41;;;;;;;7.93;4.32;;;;;;;-148.88;80.38;75909.25;5038516;28;20055;-83
2022/06/04 01:46:15;;;;;;;9.25;4.60;;;;;;;-148.88;81.00;75915.34;5038253;28;20371;-84
2022/06/04 01:48:43;;;;;;;6.05;4.38;;;;;;;-148.88;81.88;75925.50;5038898;28;20096;-85
2022/06/04 01:51:10;;;;;;;6.90;4.38;;;;;;;-148.88;81.90;75923.47;5038640;28;20428;-84
2022/06/04 01:53:39;;;;;;;6.38;4.45;;;;;;;-148.88;82.30;75935.66;5035063;28;20026;-82
2022/06/04 01:56:10;;;;;;;6.07;4.40;;;;;;;-148.88;82.41;75947.84;5034074;28;20025;-83
2022/06/04 01:59:34;;;;;;;7.93;5.05;;;;;;;-148.88;82.51;75955.97;5034531;28;20034;-81
2022/06/04 02:02:04;;;;;;;6.50;4.40;;;;;;;-148.88;82.56;75960.03;5010195;28;20041;-85
2022/06/04 02:04:35;;;;;;;6.40;4.68;;;;;;;-148.88;82.96;75964.09;5036979;28;20400;-84
2022/06/04 02:09:55;;;;;;;7.82;5.10;;;;;;;-148.88;83.72;75988.47;5039828;28;20028;-84
2022/06/04 02:12:20;;;;;;;7.88;4.93;;;;;;;-148.88;85.54;76020.97;5038550;28;20017;-85
2022/06/04 02:14:46;;;;;;;8.50;5.15;;;;;;;-148.88;86.35;76023.00;5038440;28;20078;-83
2022/06/04 02:17:19;;;;;;;6.50;4.78;;;;;;;-148.88;86.12;76033.16;5039351;28;20025;-85
2022/06/04 02:19:45;;;;;;;5.80;4.47;;;;;;;-148.88;87.08;76041.28;5040387;28;20025;-84
2022/06/04 02:22:11;;;;;;;6.88;5.32;;;;;;;-148.88;87.60;76043.31;5040564;28;20026;-83
2022/06/04 02:24:38;;;;;;;9.65;5.45;;;;;;;-148.88;88.13;76039.25;5040498;28;20556;-85
2022/06/04 02:27:06;;;;;;;7.75;4.57;;;;;;;-148.88;87.74;76041.28;5041182;28;20478;-86
2022/06/04 02:29:33;;;;;;;6.22;4.70;;;;;;;-148.88;87.32;76037.22;5037484;28;20033;-85
2022/06/04 02:32:19;;;;;;;6.57;5.22;;;;;;;-148.88;87.37;76029.09;5033930;28;20021;-84
2022/06/04 02:35:02;;;;;;;8.48;5.15;;;;;;;-148.88;87.35;76031.13;5035792;28;20022;-86
2022/06/04 02:41:06;;;;;;;7.93;4.85;;;;;;;-148.88;86.30;76025.03;5038132;28;20393;-84
2022/06/04 02:50:27;;;;;;;5.60;4.50;;;;;;;-148.88;85.00;76020.97;5042192;28;20035;-83
2022/06/04 02:52:55;;;;;;;8.18;5.03;;;;;;;-148.88;84.87;76012.84;5041845;28;20021;-82
2022/06/04 02:55:28;;;;;;;6.57;4.22;;;;;;;-148.88;84.88;76010.81;5040317;28;20025;-84
2022/06/04 02:57:58;;;;;;;7.03;4.88;;;;;;;-148.88;84.53;76004.72;5041285;28;20036;-83
2022/06/04 03:00:25;;;;;;;7.38;4.80;;;;;;;-148.88;83.96;76012.84;5040474;28;20040;-83
2022/06/04 03:02:51;;;;;;;4.97;4.47;;;;;;;-148.88;84.41;76016.91;5041564;28;20022;-83
2022/06/04 03:05:22;;;;;;;7.95;4.57;;;;;;;-148.88;85.47;76020.97;5040363;28;20032;-84
2022/06/04 03:07:50;;;;;;;7.35;4.68;;;;;;;-148.88;85.77;76035.19;5039017;28;20390;-83
2022/06/04 03:10:19;;;;;;;8.75;4.60;;;;;;;-148.88;85.60;76047.38;5038404;28;20033;-83
2022/06/04 03:12:44;;;;;;;6.05;4.32;;;;;;;-148.88;83.82;76041.28;5037594;28;20017;-83
2022/06/04 03:15:11;;;;;;;8.40;4.55;;;;;;;-148.88;83.34;76033.16;5037878;28;20017;-82
2022/06/04 03:17:37;;;;;;;7.70;4.60;;;;;;;-148.88;83.17;76033.16;5039536;28;20091;-83
2022/06/04 03:20:03;;;;;;;5.95;4.35;;;;;;;-148.88;83.26;76037.22;5038782;28;20029;-84
2022/06/04 03:22:28;;;;;;;8.20;4.90;;;;;;;-148.88;83.34;76035.19;5039272;28;20041;-83
2022/06/04 03:24:54;;;;;;;9.40;4.88;;;;;;;-148.88;83.50;76037.22;5040716;28;20033;-83
2022/06/04 03:27:19;;;;;;;7.30;4.57;;;;;;;-148.88;83.78;76041.28;5040425;28;20113;-84
2022/06/04 03:29:44;;;;;;;7.20;4.82;;;;;;;-148.88;84.17;76041.28;5040426;28;20068;-83
2022/06/04 03:32:09;;;;;;;6.22;4.45;;;;;;;-148.88;84.04;76035.19;5040000;28;20029;-84
2022/06/04 03:34:35;;;;;;;6.90;4.70;;;;;;;-148.88;83.84;76039.25;5041340;28;20021;-85
2022/06/04 03:37:00;;;;;;;6.32;4.60;;;;;;;-148.88;84.36;76041.28;5041808;28;20105;-84
2022/06/04 03:39:25;;;;;;;6.28;4.50;;;;;;;-148.88;84.28;76041.28;5040095;28;20505;-85
2022/06/04 03:41:51;;;;;;;8.70;4.85;;;;;;;-148.88;84.08;76047.38;5040632;28;20385;-85
2022/06/04 03:44:16;;;;;;;5.55;4.45;;;;;;;-148.88;84.63;76051.44;5037861;28;20033;-83
2022/06/04 03:46:41;;;;;;;7.82;4.82;;;;;;;-148.88;84.45;76057.53;5036774;28;20083;-85
2022/06/04 03:49:07;;;;;;;7.03;4.47;;;;;;;-148.88;84.68;76063.63;5037518;28;20560;-83
2022/06/04 03:51:32;;;;;;;6.00;4.53;;;;;;;-148.88;84.61;76059.56;5038074;28;20142;-85
2022/06/04 03:53:58;;;;;;;6.25;4.50;;;;;;;-148.88;84.85;76055.50;5037905;28;20116;-85
2022/06/04 03:56:24;;;;;;;7.47;4.20;;;;;;;-148.88;84.47;76061.59;5038245;28;20393;-86
2022/06/04 03:58:49;;;;;;;6.30;4.60;;;;;;;-148.88;84.80;76051.44;5039217;28;20375;-83
2022/06/04 04:01:21;;;;;;;8.02;4.70;;;;;;;-148.88;84.89;76051.44;5039105;28;20030;-83
2022/06/04 04:03:50;;;;;;;6.57;4.22;;;;;;;-148.88;84.89;76047.38;5041834;28;20026;-84
2022/06/04 04:06:24;;;;;;;6.78;4.50;;;;;;;-148.88;84.79;76045.34;5043897;28;20474;-83
2022/06/04 04:08:50;;;;;;;6.85;4.53;;;;;;;-148.88;84.71;76053.47;5039263;28;20108;-82
2022/06/04 04:11:17;;;;;;;6.35;4.50;;;;;;;-148.88;84.07;76047.38;5039865;28;20049;-85
2022/06/04 04:13:44;;;;;;;6.47;4.53;;;;;;;-148.88;83.97;76049.41;5040978;28;20362;-84
2022/06/04 04:16:11;;;;;;;8.23;4.40;;;;;;;-148.88;84.00;76051.44;5041584;28;20116;-85
2022/06/04 04:18:37;;;;;;;6.22;4.45;;;;;;;-148.88;84.18;76041.28;5041277;28;20453;-84
2022/06/04 04:21:08;;;;;;;6.63;4.80;;;;;;;-148.88;84.23;76049.41;5038657;28;20362;-84
2022/06/04 04:23:34;;;;;;;7.10;4.35;;;;;;;-148.88;84.63;76053.47;5038312;28;20029;-83
2022/06/04 04:26:00;;;;;;;7.68;5.13;;;;;;;-148.88;84.65;76061.59;5038867;28;20045;-82
2022/06/04 04:28:26;;;;;;;7.57;4.70;;;;;;;-148.88;84.14;76045.34;5038543;28;20025;-82
2022/06/04 04:30:51;;;;;;;6.80;4.30;;;;;;;-148.88;84.82;76043.31;5038482;28;20028;-81
2022/06/04 04:33:16;;;;;;;6.18;4.50;;;;;;;-148.88;84.91;76041.28;5043069;28;20393;-83
2022/06/04 04:35:43;;;;;;;6.80;4.80;;;;;;;-148.88;84.84;76039.25;5044086;28;20061;-83
2022/06/04 04:38:08;;;;;;;6.68;4.70;;;;;;;-148.88;83.47;76045.34;5045654;28;20021;-83
2022/06/04 04:40:34;;;;;;;5.72;4.25;;;;;;;-148.88;83.24;76041.28;5045752;28;20456;-84
2022/06/04 04:43:00;;;;;;;8.60;4.68;;;;;;;-148.88;83.80;76037.22;5044673;28;20025;-84
2022/06/04 04:45:26;;;;;;;7.70;4.68;;;;;;;-148.88;83.42;76045.34;5043703;28;20022;-83
2022/06/04 04:47:53;;;;;;;5.68;4.78;;;;;;;-148.88;83.34;76039.25;5044855;28;20025;-83
2022/06/04 04:50:28;;;;;;;7.10;4.80;;;;;;;-148.88;82.07;76041.28;5043218;28;20025;-83
2022/06/04 04:52:55;;;;;;;7.32;4.68;;;;;;;-148.88;81.66;76033.16;5043232;28;20032;-83
2022/06/04 04:55:20;;;;;;;6.18;4.70;;;;;;;-148.88;81.45;76016.91;5043156;28;20113;-83
2022/06/04 04:57:45;;;;;;;6.13;4.78;;;;;;;-148.88;81.16;76010.81;5044773;28;20027;-83
2022/06/04 05:00:12;;;;;;;7.55;4.90;;;;;;;-148.88;80.75;76008.78;5037009;28;20065;-83
2022/06/04 05:02:37;;;;;;;7.53;4.32;;;;;;;-148.88;80.15;76008.78;5037419;28;20025;-81
2022/06/04 05:05:04;;;;;;;6.05;4.40;;;;;;;-148.88;79.24;75996.59;5040937;28;20035;-83
2022/06/04 05:07:29;;;;;;;9.13;4.28;;;;;;;-148.88;78.93;75980.34;5040336;28;20571;-82
2022/06/04 05:09:54;;;;;;;8.68;4.30;;;;;;;-148.88;78.01;75980.34;5043381;28;20025;-82
2022/06/04 05:12:20;;;;;;;5.38;4.13;;;;;;;-148.88;76.01;75976.28;5040768;28;20029;-83
2022/06/04 05:14:45;;;;;;;6.55;4.18;;;;;;;-148.88;76.49;75966.13;5041483;28;20031;-85
2022/06/04 05:17:10;;;;;;;7.30;4.32;;;;;;;-148.88;76.62;75968.16;5042541;28;20433;-82
2022/06/04 05:19:36;;;;;;;7.25;3.95;;;;;;;-148.88;75.63;75972.22;5041395;28;20025;-81
2022/06/04 05:22:01;;;;;;;5.72;3.70;;;;;;;-148.88;74.85;75972.22;5043586;28;20022;-80
2022/06/04 05:24:30;;;;;;;9.10;4.15;;;;;;;-148.88;74.41;75970.19;5040297;28;20553;-83
2022/06/04 05:26:56;;;;;;;7.45;4.18;;;;;;;-148.88;74.39;75968.16;5040831;28;20025;-80
2022/06/04 05:29:22;;;;;;;5.63;3.95;;;;;;;-148.88;74.10;75951.91;5042465;28;20022;-81
2022/06/04 05:31:49;;;;;;;7.10;3.97;;;;;;;-148.88;72.82;75966.13;5044033;28;20101;-82
2022/06/04 05:34:17;;;;;;;5.45;4.05;;;;;;;-148.88;74.19;75966.13;5044118;28;20029;-81
2022/06/04 05:36:42;;;;;;;5.90;4.45;;;;;;;-148.88;73.22;75960.03;5037589;28;20072;-81
2022/06/04 05:39:09;;;;;;;7.35;4.65;;;;;;;-148.88;73.78;75972.22;5038423;28;20033;-80
2022/06/04 05:41:35;;;;;;;6.88;4.35;;;;;;;-148.88;75.02;75962.06;5038794;28;20063;-82
2022/06/04 05:44:01;;;;;;;6.47;4.00;;;;;;;-148.88;75.38;75964.09;5037238;28;20029;-82
2022/06/04 05:46:27;;;;;;;8.50;4.53;;;;;;;-148.88;75.23;75968.16;5037672;28;20017;-82
2022/06/04 05:55:37;;;;;;;7.05;4.65;;;;;;;-148.88;74.64;75970.19;5039588;28;20056;-83
2022/06/04 05:58:02;;;;;;;5.88;4.30;;;;;;;-148.88;74.96;75976.28;5037730;28;20159;-82
2022/06/04 06:00:27;;;;;;;6.43;4.75;;;;;;;-148.88;74.13;75986.44;5038557;28;20044;-82
2022/06/04 06:02:53;;;;;;;6.63;4.70;;;;;;;-148.88;75.43;75964.09;5038823;28;20033;-83
2022/06/04 06:05:18;;;;;;;7.43;4.53;;;;;;;-148.88;75.80;75960.03;5040419;28;20062;-85
2022/06/04 06:07:43;;;;;;;7.07;4.47;;;;;;;-148.88;75.21;75984.41;5040311;28;20029;-82
2022/06/04 06:10:09;;;;;;;6.03;4.65;;;;;;;-148.88;75.04;75980.34;5039583;28;20060;-85
2022/06/04 06:12:34;;;;;;;5.20;4.38;;;;;;;-148.88;74.16;75974.25;5039254;28;20066;-85
2022/06/04 06:14:59;;;;;;;6.93;4.53;;;;;;;-148.88;75.10;75958.00;5034038;28;20033;-84
2022/06/04 06:17:24;;;;;;;6.68;5.00;;;;;;;-148.88;75.41;75945.81;5035443;28;20465;-84
2022/06/04 06:19:50;;;;;;;7.78;4.40;;;;;;;-148.88;74.56;75941.75;5035873;28;20021;-84
2022/06/04 06:22:15;;;;;;;7.07;4.70;;;;;;;-148.88;73.47;75927.53;5037950;28;20401;-83
2022/06/04 06:24:40;;;;;;;6.43;4.70;;;;;;;-148.88;72.66;75927.53;5037321;28;20021;-84
2022/06/04 06:27:08;;;;;;;13.05;5.32;;;;;;;-148.88;73.75;75923.47;5037469;28;20029;-84
2022/06/04 06:29:33;;;;;;;8.32;5.07;;;;;;;-148.88;74.14;75921.44;5036592;28;20473;-85
2022/06/04 06:32:00;;;;;;;10.57;4.82;;;;;;;-148.88;73.29;75919.41;5038720;28;20075;-85
2022/06/04 06:34:25;;;;;;;7.22;5.43;;;;;;;-148.88;72.03;75919.41;5038739;28;20089;-85
2022/06/04 06:36:51;;;;;;;7.32;5.00;;;;;;;-148.88;71.02;75913.31;5039341;28;20072;-85
2022/06/04 06:39:17;;;;;;;7.72;4.95;;;;;;;-148.88;73.29;75901.13;5039069;28;20061;-85
2022/06/04 06:41:42;;;;;;;8.63;5.13;;;;;;;-148.88;73.43;75895.03;5041902;28;20081;-83
2022/06/04 06:44:10;;;;;;;7.00;5.18;;;;;;;-148.88;72.85;75907.22;5039269;28;20049;-84
2022/06/04 06:46:43;;;;;;;7.78;4.65;;;;;;;-148.88;72.07;75907.22;5036758;28;20029;-85
2022/06/04 06:49:29;;;;;;;6.95;4.95;;;;;;;-148.88;73.54;75907.22;5037420;28;20032;-85
2022/06/04 06:51:57;;;;;;;7.35;4.93;;;;;;;-148.88;72.77;75899.09;5034961;28;20041;-84
2022/06/04 06:54:26;;;;;;;6.68;4.88;;;;;;;-148.88;73.93;75876.75;5037119;28;20453;-82
2022/06/04 06:56:52;;;;;;;9.00;4.68;;;;;;;-148.88;72.77;75878.78;5035964;28;20430;-83
2022/06/04 06:59:24;;;;;;;5.93;4.55;;;;;;;-148.88;70.93;75874.72;5037323;28;20029;-84
2022/06/04 07:01:50;;;;;;;7.60;4.97;;;;;;;-148.88;70.89;75866.59;5039965;28;20068;-84
2022/06/04 07:04:16;;;;;;;7.88;5.20;;;;;;;-148.88;71.46;75854.41;5040411;28;20049;-85
2022/06/04 07:06:45;;;;;;;7.90;4.63;;;;;;;-148.88;70.94;75854.41;5039278;28;20509;-85
2022/06/04 07:09:19;;;;;;;8.80;4.57;;;;;;;-148.88;69.91;75846.28;5040290;28;20029;-85
2022/06/04 07:11:45;;;;;;;6.85;4.65;;;;;;;-148.88;70.58;75840.19;5036979;28;20105;-84
2022/06/04 07:14:11;;;;;;;8.02;4.95;;;;;;;-148.88;70.41;75832.06;5037545;28;20053;-84
2022/06/04 07:16:37;;;;;;;8.63;4.45;;;;;;;-148.88;70.06;75823.94;5052166;23;20044;-79
2022/06/04 07:19:03;;;;;;;10.02;4.63;;;;;;;-148.88;69.36;75795.50;5030640;28;20029;-76
2022/06/04 07:21:29;;;;;;;6.10;4.05;;;;;;;-148.88;68.43;75783.31;5052282;28;20044;-76
2022/06/04 07:23:56;;;;;;;6.63;4.22;;;;;;;-148.88;68.97;75785.34;5052170;28;20502;-76
2022/06/04 07:26:21;;;;;;;6.93;4.25;;;;;;;-148.88;67.85;75775.19;5051977;28;20131;-76
2022/06/04 07:28:47;;;;;;;7.80;4.40;;;;;;;-148.88;67.42;75763.00;5052257;28;20100;-75
2022/06/04 07:31:14;;;;;;;7.32;4.72;;;;;;;-148.88;68.18;75748.78;5055079;28;20098;-76
2022/06/04 07:33:44;;;;;;;6.15;4.05;;;;;;;-148.88;67.33;75730.50;5055651;28;20362;-76
2022/06/04 07:36:17;;;;;;;8.57;3.95;;;;;;;-148.88;66.67;75724.41;5055342;28;20049;-76
2022/06/04 07:38:43;;;;;;;6.22;3.97;;;;;;;-148.88;65.80;75698.00;5055456;28;20049;-76
2022/06/04 07:41:19;;;;;;;7.43;4.28;;;;;;;-148.88;65.33;75677.69;5055276;28;20036;-76
2022/06/04 07:43:44;;;;;;;7.57;4.03;;;;;;;-148.88;66.76;75667.53;5055439;28;20078;-76
2022/06/04 07:46:10;;;;;;;7.22;4.22;;;;;;;-148.88;68.26;75651.28;5055371;28;20028;-76
2022/06/04 07:48:35;;;;;;;6.38;4.65;;;;;;;-148.88;69.27;75637.06;5055571;28;20535;-76
2022/06/04 07:51:03;;;;;;;8.07;4.25;;;;;;;-148.88;65.43;75628.94;5055715;28;20056;-76
2022/06/04 07:53:28;;;;;;;6.65;3.80;;;;;;;-148.88;64.50;75598.47;5055276;28;20021;-76
2022/06/04 07:55:53;;;;;;;8.25;4.05;;;;;;;-148.88;62.00;75590.34;5054975;28;20371;-76
2022/06/04 07:58:18;;;;;;;5.30;3.63;;;;;;;-148.88;61.52;75582.22;5055334;28;20077;-76
2022/06/04 08:00:44;;;;;;;7.50;3.83;;;;;;;-148.88;60.90;75582.22;5055535;28;20052;-76
2022/06/04 08:03:09;;;;;;;6.78;3.65;;;;;;;-148.88;61.69;75563.97;5037255;28;20389;-76
2022/06/04 08:05:35;;;;;;;5.25;3.17;;;;;;;-148.88;60.08;75566.00;5055467;28;20493;-75
2022/06/04 08:08:00;;;;;;;5.13;3.55;;;;;;;-148.88;61.44;75559.91;5055294;28;20132;-76
2022/06/04 08:10:26;;;;;;;4.15;2.83;;;;;;;-148.88;63.45;75545.69;5054879;28;20044;-77
2022/06/04 08:12:52;;;;;;;6.28;3.25;;;;;;;-148.88;61.12;75543.66;5054683;28;20063;-76
2022/06/04 08:15:18;;;;;;;4.88;3.35;;;;;;;-148.88;59.78;75547.72;5054879;28;20047;-76
2022/06/04 08:17:46;;;;;;;4.85;3.25;;;;;;;-148.88;59.91;75545.69;5054440;28;20511;-76
2022/06/04 08:20:12;;;;;;;4.72;3.13;;;;;;;-148.88;59.66;75537.56;5054466;28;20025;-76
2022/06/04 08:22:37;;;;;;;4.00;3.30;;;;;;;-148.88;61.67;75533.50;5054621;28;20027;-76
2022/06/04 08:25:03;;;;;;;5.53;3.20;;;;;;;-148.88;60.83;75533.50;5054358;28;20094;-76
2022/06/04 08:27:28;;;;;;;7.72;4.15;;;;;;;-148.88;59.87;75490.84;5054284;28;20044;-76
2022/06/04 08:29:53;;;;;;;6.05;3.40;;;;;;;-148.88;60.89;75460.38;5054494;28;20036;-76
2022/06/04 08:32:19;;;;;;;5.68;3.33;;;;;;;-148.88;58.81;75468.50;5054529;28;20437;-76
2022/06/04 08:34:44;;;;;;;4.50;3.33;;;;;;;-148.88;57.43;75460.38;5054548;28;20039;-76
2022/06/04 08:37:09;;;;;;;5.88;3.47;;;;;;;-148.88;60.70;75460.38;5054317;28;20236;-76
2022/06/04 08:39:34;;;;;;;5.65;3.65;;;;;;;-148.88;58.75;75444.13;5054164;28;20021;-76
2022/06/04 08:42:32;;;;;;;6.93;3.47;;;;;;;-148.88;59.11;75456.31;5054259;28;20100;-77
2022/06/04 08:45:00;;;;;;;7.22;4.00;;;;;;;-148.88;58.77;75436.00;5027274;28;20041;-75
2022/06/04 08:47:55;;;;;;;5.65;3.60;;;;;;;-148.88;61.44;75391.31;5036162;28;20029;-76
2022/06/04 08:50:24;;;;;;;5.05;3.53;;;;;;;-148.88;57.78;75379.13;5036649;28;20029;-76
2022/06/04 08:53:04;;;;;;;6.40;3.75;;;;;;;-148.88;58.90;75371.00;5053997;28;20024;-76
2022/06/04 08:58:43;;;;;;;5.53;3.78;;;;;;;-148.88;57.41;75358.81;5054465;28;20035;-76
2022/06/04 09:01:16;;;;;;;6.55;3.60;;;;;;;-148.88;57.66;75344.59;5053992;28;20475;-76
2022/06/04 09:04:05;;;;;;;5.85;3.40;;;;;;;-148.88;54.44;75281.66;5054182;28;20029;-76
2022/06/04 09:07:09;;;;;;;6.65;3.70;;;;;;;-148.88;53.71;75287.72;5053676;28;20024;-76
2022/06/04 09:09:41;;;;;;;5.25;3.58;;;;;;;-148.88;55.55;75310.06;4972921;28;20516;-76
2022/06/04 09:12:22;;;;;;;5.88;3.53;;;;;;;-148.88;58.65;75285.69;5040725;28;20110;-76
2022/06/04 09:14:58;;;;;;;6.40;3.42;;;;;;;-148.88;59.28;75259.31;5035640;28;20027;-76
2022/06/04 09:17:37;;;;;;;6.95;3.75;;;;;;;-148.88;57.15;75267.44;5053551;28;20403;-76
2022/06/04 09:20:16;;;;;;;7.05;4.00;;;;;;;-148.88;56.44;75301.94;5054203;28;20366;-76
2022/06/04 09:22:44;;;;;;;5.68;3.70;;;;;;;-148.88;57.71;75283.66;5054164;28;20024;-75
2022/06/04 09:25:15;;;;;;;7.78;4.13;;;;;;;-148.88;55.58;75308.03;5053404;28;20094;-77
2022/06/04 09:27:51;;;;;;;6.68;4.30;;;;;;;-148.88;55.46;75295.84;5053489;28;20150;-76
2022/06/04 09:30:30;;;;;;;7.28;4.03;;;;;;;-148.88;56.73;75257.28;5053504;28;20099;-76
2022/06/04 09:33:23;;;;;;;7.13;3.47;;;;;;;-148.88;54.63;75243.06;5053202;28;20044;-76
2022/06/04 09:35:48;;;;;;;4.93;3.30;;;;;;;-148.88;55.06;75228.84;5053179;28;20047;-77
2022/06/04 09:38:23;;;;;;;7.07;4.13;;;;;;;-148.88;55.49;75245.09;5035393;28;20474;-76
2022/06/04 09:40:57;;;;;;;5.72;3.58;;;;;;;-148.88;54.57;75257.28;5053106;28;20504;-76
2022/06/04 09:43:22;;;;;;;7.90;3.92;;;;;;;-148.88;56.73;75239.00;5053165;28;20031;-76
2022/06/04 09:45:53;;;;;;;9.73;4.10;;;;;;;-148.88;58.45;75241.03;5053113;28;20385;-76
2022/06/04 09:48:22;;;;;;;4.75;3.80;;;;;;;-148.88;56.29;75230.88;5053007;28;20029;-77
2022/06/04 09:50:54;;;;;;;4.43;3.72;;;;;;;-148.88;58.08;75228.84;5052760;28;20028;-76
2022/06/04 09:53:27;;;;;;;6.75;3.47;;;;;;;-148.88;56.52;75212.59;5052583;28;20025;-77
2022/06/04 09:56:07;;;;;;;7.10;4.32;;;;;;;-148.88;55.39;75236.97;5052925;28;20112;-76
2022/06/04 09:58:36;;;;;;;7.18;4.38;;;;;;;-148.88;56.89;75208.53;5053270;28;20039;-75
2022/06/04 10:01:06;;;;;;;8.55;4.20;;;;;;;-148.88;56.64;75151.66;5053228;28;20091;-76
2022/06/04 10:03:36;;;;;;;6.72;3.83;;;;;;;-148.88;54.96;75090.72;5052595;28;20029;-76
2022/06/04 10:06:06;;;;;;;8.27;4.32;;;;;;;-148.88;53.15;75070.44;5052906;28;20096;-77
2022/06/04 10:09:55;;;;;;;5.60;3.70;;;;;;;-148.88;54.01;75046.06;5052552;28;20501;-76
2022/06/04 10:11:21;;;;;;;6.25;4.38;;;;;;;-148.88;52.67;75066.38;5052345;28;20094;-76
2022/06/04 10:13:52;;;;;;;5.22;3.72;;;;;;;-148.88;53.18;75007.47;5052398;28;20363;-76
2022/06/04 10:16:36;;;;;;;7.90;3.80;;;;;;;-148.88;51.36;75011.53;5052509;28;20044;-76
2022/06/04 10:19:13;;;;;;;7.43;3.70;;;;;;;-148.88;52.27;75029.81;5052685;28;20151;-76
2022/06/04 10:21:41;;;;;;;6.18;3.83;;;;;;;-148.88;51.89;74997.31;5052442;28;20450;-76
2022/06/04 10:24:23;;;;;;;7.40;4.05;;;;;;;-148.88;50.21;75011.53;5034502;28;20047;-76
2022/06/04 10:27:07;;;;;;;5.45;3.78;;;;;;;-148.88;51.09;75003.41;5053053;28;20505;-76
2022/06/04 10:29:57;;;;;;;6.32;3.90;;;;;;;-148.88;51.55;74989.19;5052958;28;20096;-76
2022/06/04 10:32:47;;;;;;;6.20;4.13;;;;;;;-148.88;51.97;75023.72;5035148;28;20021;-76
2022/06/04 10:35:18;;;;;;;7.05;3.72;;;;;;;-148.88;54.38;74991.22;5053135;28;20032;-76
2022/06/04 10:38:06;;;;;;;5.57;4.63;;;;;;;-148.88;55.79;74958.72;5054049;28;20501;-76
2022/06/04 10:40:45;;;;;;;9.07;5.15;;;;;;;-148.88;53.89;74966.84;5052908;28;20405;-77
2022/06/04 10:43:36;;;;;;;7.38;4.88;;;;;;;-148.88;55.33;74960.75;5053070;28;20021;-76
2022/06/04 10:46:19;;;;;;;6.35;4.43;;;;;;;-148.88;55.54;74981.06;5052841;28;20037;-76
2022/06/04 10:49:07;;;;;;;5.50;4.38;;;;;;;-148.88;54.19;74956.69;5052742;28;20024;-77
2022/06/04 10:51:53;;;;;;;8.63;4.38;;;;;;;-148.88;54.98;74948.56;5053074;28;20032;-76
2022/06/04 10:54:44;;;;;;;6.20;3.67;;;;;;;-148.88;55.92;74928.28;5053063;28;20020;-77
2022/06/04 10:57:20;;;;;;;5.18;3.92;;;;;;;-148.88;52.89;74985.13;5052960;28;20103;-76
2022/06/04 11:00:10;;;;;;;6.38;4.38;;;;;;;-148.88;53.14;74993.25;5052886;28;20031;-77
2022/06/04 11:02:57;;;;;;;6.18;4.57;;;;;;;-148.88;53.61;75005.44;5052907;28;20500;-76
2022/06/04 11:05:31;;;;;;;7.32;4.40;;;;;;;-148.88;56.08;74954.66;5054204;28;20033;-77
2022/06/04 11:08:05;;;;;;;5.47;4.30;;;;;;;-148.88;51.73;74960.75;5056731;28;20029;-76
2022/06/04 11:10:37;;;;;;;6.43;4.63;;;;;;;-148.88;53.18;74950.59;5056723;28;20037;-77
2022/06/04 11:13:15;;;;;;;7.13;5.07;;;;;;;-148.88;52.03;75005.44;5056963;28;20096;-77
2022/06/04 11:15:54;;;;;;;7.93;4.70;;;;;;;-148.88;55.58;74997.31;5057490;28;20025;-76
2022/06/04 11:18:28;;;;;;;8.02;5.53;;;;;;;-148.88;53.20;75001.38;5056238;28;20095;-77
2022/06/04 11:20:58;;;;;;;13.80;9.50;;;;;;;-148.88;54.62;74987.16;5056513;28;20402;-76
2022/06/04 11:23:48;;;;;;;9.02;6.03;;;;;;;-148.88;55.63;74956.69;5056148;28;20150;-76
2022/06/04 11:26:31;;;;;;;13.02;7.97;;;;;;;-148.88;56.57;74950.59;5056115;28;20052;-77
2022/06/04 11:28:56;;;;;;;14.77;10.07;;;;;;;-148.88;53.63;74952.63;5056882;28;20066;-76
2022/06/04 11:31:40;;;;;;;35.42;24.77;;;;;;;-148.88;55.06;74946.53;5056364;28;20025;-77
2022/06/04 11:34:20;;;;;;;8.85;5.65;;;;;;;-148.88;55.08;74910.00;5056319;28;20469;-77
2022/06/04 11:37:14;;;;;;;5.75;4.55;;;;;;;-148.88;55.75;74883.59;5056501;28;20043;-77
2022/06/04 11:40:00;;;;;;;7.85;4.85;;;;;;;-148.88;51.80;74912.03;5056260;28;20039;-77
2022/06/04 11:42:41;;;;;;;5.90;4.03;;;;;;;-148.88;55.68;74861.25;5056115;28;20063;-77
2022/06/04 11:45:39;;;;;;;7.95;4.45;;;;;;;-148.88;55.31;74875.47;5056171;28;20096;-77
2022/06/04 11:48:43;;;;;;;7.18;4.82;;;;;;;-148.88;52.82;74859.22;5055813;28;20044;-77
2022/06/04 11:51:44;;;;;;;6.57;5.28;;;;;;;-148.88;54.07;74851.09;5008483;28;20056;-76
2022/06/04 11:54:15;;;;;;;7.43;4.88;;;;;;;-148.88;52.09;74853.13;5056405;28;20462;-77
2022/06/04 11:56:55;;;;;;;6.03;4.10;;;;;;;-148.88;52.82;74877.50;5055700;28;20037;-77
2022/06/04 11:59:48;;;;;;;5.50;4.03;;;;;;;-148.88;53.23;74916.09;5055760;28;20029;-77
2022/06/04 12:02:30;;;;;;;7.33;5.53;;;;;;;-148.88;54.94;74920.16;5055536;28;20031;-77
2022/06/04 12:05:16;;;;;;;7.32;4.65;;;;;;;-148.88;53.20;74942.47;5055574;28;20539;-77